Main page
METAR-TAF:

METAR-TAF

Airports :

Sulphur Springs Municipal Airport

Sulphur Springs, Texas, United States

latitude: 33-09-40N, longitude: 095-37-16W, elevation: 489 ft

Current weather observation

The report was made 30 minutes ago, at 11:55 UTC
Wind 5 mph from the South
Temperature 77°F
Humidity 83%
Pressure 30.11 in. Hg
Visibility: 10 miles
Clear sky

METAR: KSLR 221155Z AUTO 18004KT 10SM CLR 25/22 A3011 RMK AO2 T02510216 10261 20225

Time: 07:25 (12:25 UTC)


TAF: missing

Weather observations and forecasts of more than 4000 airports (METAR and TAF reports).

The available stations are represented by yellow and red dots on the map.

Hover mouse over dot to see the name of the station.

Then click to see weather observations and forecasts.

To change the map : click on the green buttons with a black cross to zoom in, on the green button with a dash to zoom out, or on the green arrows for adjacent maps.


METAR-TAF: